Time;durP1;ratioP1;P1;durP2;ratioP2;P2;SDS_P1;SDS_P2;PMS_P1;PMS_P2;Temp;Humidity;BMP_temperature;BMP_pressure;BME280_temperature;BME280_humidity;BME280_pressure;Samples;Min_cycle;Max_cycle;Signal;HPM_P1;HPM_P2
2023/05/06 00:01:50;;;;;;;1999.90;999.90;;;;;;;15.17;100.00;97875.44;5012605;28;20072;-75
2023/05/06 00:04:15;;;;;;;1999.90;999.90;;;;;;;15.07;100.00;97873.00;5033558;28;20058;-76
2023/05/06 00:06:41;;;;;;;1999.90;999.90;;;;;;;15.12;100.00;97877.56;5033311;28;20036;-75
2023/05/06 00:09:06;;;;;;;1999.90;999.90;;;;;;;15.10;100.00;97874.34;5030074;28;20173;-75
2023/05/06 00:11:32;;;;;;;1999.90;999.90;;;;;;;15.01;100.00;97874.31;5011488;28;20446;-74
2023/05/06 00:13:57;;;;;;;1999.90;999.90;;;;;;;14.90;100.00;97879.38;5016331;28;20155;-75
2023/05/06 00:16:23;;;;;;;1999.90;999.90;;;;;;;14.86;100.00;97880.34;5033610;28;20037;-75
2023/05/06 00:18:48;;;;;;;1999.90;999.90;;;;;;;14.76;100.00;97870.44;5033908;28;20026;-75
2023/05/06 00:21:14;;;;;;;1999.90;999.90;;;;;;;14.74;100.00;97871.91;5033401;28;20021;-75
2023/05/06 00:23:40;;;;;;;1999.90;999.90;;;;;;;14.88;100.00;97883.56;5033386;28;20110;-75
2023/05/06 00:26:05;;;;;;;1999.90;999.90;;;;;;;14.81;100.00;97873.06;5033439;28;20025;-75
2023/05/06 00:28:32;;;;;;;1999.90;999.90;;;;;;;14.76;100.00;97873.22;5033870;28;20025;-75
2023/05/06 00:30:57;;;;;;;1999.90;999.90;;;;;;;14.85;100.00;97885.03;5034396;28;20029;-75
2023/05/06 00:33:22;;;;;;;1999.90;999.90;;;;;;;14.73;100.00;97871.09;5034492;28;20497;-75
2023/05/06 00:35:48;;;;;;;1999.90;999.90;;;;;;;14.76;100.00;97864.94;5033262;28;20389;-75
2023/05/06 00:38:18;;;;;;;1999.90;999.90;;;;;;;14.63;100.00;97865.13;5032520;28;20442;-75
2023/05/06 00:40:43;;;;;;;1999.90;999.90;;;;;;;14.60;100.00;97876.78;5015327;28;20511;-75
2023/05/06 00:43:09;;;;;;;1999.90;999.90;;;;;;;14.51;100.00;97873.19;5033210;28;20030;-76
2023/05/06 00:45:34;;;;;;;1999.90;999.90;;;;;;;14.57;100.00;97878.22;5015773;28;20024;-76
2023/05/06 00:48:00;;;;;;;1999.90;999.90;;;;;;;14.52;100.00;97869.31;5033247;28;20112;-75
2023/05/06 00:50:27;;;;;;;1999.90;999.90;;;;;;;14.42;100.00;97865.75;5015282;28;20049;-75
2023/05/06 00:52:53;;;;;;;1999.90;999.90;;;;;;;14.51;100.00;97875.94;5032982;28;20025;-75
2023/05/06 00:55:20;;;;;;;1999.90;999.90;;;;;;;14.45;100.00;97872.53;5032796;28;20534;-75
2023/05/06 00:57:48;;;;;;;1999.90;999.90;;;;;;;14.39;100.00;97873.84;5032822;28;20037;-75
2023/05/06 01:00:14;;;;;;;1999.90;999.90;;;;;;;14.43;100.00;97872.06;5015096;28;20026;-75
2023/05/06 01:02:40;;;;;;;1999.90;999.90;;;;;;;14.49;100.00;97881.78;5032784;28;20030;-75
2023/05/06 01:05:06;;;;;;;1999.90;999.90;;;;;;;14.51;100.00;97876.75;5033045;28;20390;-76
2023/05/06 01:07:43;;;;;;;1999.90;999.90;;;;;;;14.41;100.00;97879.81;5015218;28;20030;-75
2023/05/06 01:10:20;;;;;;;1999.90;999.90;;;;;;;14.31;100.00;97880.13;5032778;28;20037;-75
2023/05/06 01:13:10;;;;;;;1999.90;999.90;;;;;;;14.21;100.00;97895.00;5032483;28;20112;-75
2023/05/06 01:15:43;;;;;;;1999.90;999.90;;;;;;;14.24;100.00;97890.78;5032972;28;20033;-75
2023/05/06 01:18:10;;;;;;;1999.90;999.90;;;;;;;14.23;100.00;97884.47;5014907;28;20040;-75
2023/05/06 01:20:37;;;;;;;1999.90;999.90;;;;;;;14.20;100.00;97873.28;5032559;28;20467;-75
2023/05/06 01:23:11;;;;;;;1999.90;999.90;;;;;;;14.26;100.00;97894.00;5032483;28;20018;-75
2023/05/06 01:25:39;;;;;;;1999.90;999.90;;;;;;;14.20;100.00;97892.53;5014510;28;20021;-75
2023/05/06 01:28:09;;;;;;;1999.90;999.90;;;;;;;14.14;100.00;97885.56;5032357;28;20041;-75
2023/05/06 01:30:42;;;;;;;1999.90;999.90;;;;;;;14.09;100.00;97882.97;5014480;28;20026;-75
2023/05/06 01:33:13;;;;;;;1999.90;999.90;;;;;;;14.11;100.00;97891.72;5032440;28;20030;-75
2023/05/06 01:36:00;;;;;;;1999.90;999.90;;;;;;;14.10;100.00;97901.09;5032359;28;20048;-75
2023/05/06 01:38:35;;;;;;;1999.90;999.90;;;;;;;14.06;100.00;97905.63;5014269;28;20053;-75
2023/05/06 01:41:01;;;;;;;1999.90;999.90;;;;;;;13.92;100.00;97901.03;5032131;28;20119;-75
2023/05/06 01:43:32;;;;;;;1999.90;999.90;;;;;;;14.01;100.00;97911.25;5032087;28;20270;-75
2023/05/06 01:45:59;;;;;;;1999.90;999.90;;;;;;;13.93;100.00;97893.63;5032524;28;20087;-75
2023/05/06 01:48:27;;;;;;;1999.90;999.90;;;;;;;13.91;100.00;97909.59;5032088;28;20063;-75
2023/05/06 01:50:53;;;;;;;1999.90;999.90;;;;;;;13.89;100.00;97909.94;5032108;28;20045;-75
2023/05/06 01:53:18;;;;;;;1999.90;999.90;;;;;;;13.82;100.00;97901.31;5032025;28;20029;-77
2023/05/06 01:55:44;;;;;;;1999.90;999.90;;;;;;;13.81;100.00;97904.41;5014236;28;20083;-75
2023/05/06 01:58:09;;;;;;;1999.90;999.90;;;;;;;13.79;100.00;97906.66;5031943;28;20076;-75
2023/05/06 02:00:37;;;;;;;1999.90;999.90;;;;;;;13.78;100.00;97907.78;5031758;28;20124;-75
2023/05/06 02:03:02;;;;;;;1999.90;999.90;;;;;;;13.78;100.00;97892.09;5031566;28;20048;-76
2023/05/06 02:05:27;;;;;;;1999.90;999.90;;;;;;;13.76;100.00;97908.09;5031763;28;20037;-75
2023/05/06 02:07:53;;;;;;;1999.90;999.90;;;;;;;13.64;100.00;97891.38;5031818;28;20500;-75
2023/05/06 02:10:18;;;;;;;1999.90;999.90;;;;;;;13.49;100.00;97883.56;5031930;28;20029;-75
2023/05/06 02:12:43;;;;;;;1999.90;999.90;;;;;;;13.59;100.00;97896.22;5033539;28;20467;-75
2023/05/06 02:15:09;;;;;;;1999.90;999.90;;;;;;;13.76;100.00;97893.53;5017408;28;20067;-76
2023/05/06 02:17:36;;;;;;;1999.90;999.90;;;;;;;13.69;100.00;97893.22;5032082;28;20537;-74
2023/05/06 02:20:01;;;;;;;1999.90;999.90;;;;;;;13.59;100.00;97891.53;5031605;28;20052;-74
2023/05/06 02:22:27;;;;;;;1999.90;999.90;;;;;;;13.51;100.00;97889.53;5031396;28;20396;-75
2023/05/06 02:24:52;;;;;;;1999.90;999.90;;;;;;;13.49;100.00;97885.50;5013618;28;20087;-75
2023/05/06 02:27:17;;;;;;;1999.90;999.90;;;;;;;13.50;100.00;97882.41;5013775;28;20160;-75
2023/05/06 02:29:43;;;;;;;1999.90;999.90;;;;;;;13.50;100.00;97887.91;5031544;28;20032;-74
2023/05/06 02:32:08;;;;;;;1999.90;999.90;;;;;;;13.51;100.00;97878.56;5031615;28;20393;-76
2023/05/06 02:34:33;;;;;;;1999.90;999.90;;;;;;;13.55;100.00;97874.06;5031822;28;20501;-76
2023/05/06 02:36:59;;;;;;;1999.90;999.90;;;;;;;13.55;100.00;97879.56;5031024;28;20140;-75
2023/05/06 02:39:24;;;;;;;1999.90;999.90;;;;;;;13.49;100.00;97877.25;5030355;28;20378;-74
2023/05/06 02:41:49;;;;;;;1999.90;999.90;;;;;;;13.60;100.00;97884.09;5030993;28;20021;-75
2023/05/06 02:44:15;;;;;;;1999.90;999.90;;;;;;;13.62;100.00;97879.91;5013653;28;20485;-74
2023/05/06 02:46:42;;;;;;;1999.90;999.90;;;;;;;13.70;100.00;97873.63;5031356;28;20025;-75
2023/05/06 02:49:07;;;;;;;1999.90;999.90;;;;;;;13.67;100.00;97877.00;5013631;28;20025;-75
2023/05/06 02:51:33;;;;;;;1999.90;999.90;;;;;;;13.74;100.00;97880.13;5013322;28;20374;-75
2023/05/06 02:53:58;;;;;;;1999.90;999.90;;;;;;;13.73;100.00;97875.75;5013150;28;20034;-75
2023/05/06 02:56:23;;;;;;;1999.90;999.90;;;;;;;13.74;100.00;97871.88;5030922;28;20026;-75
2023/05/06 02:58:49;;;;;;;1999.90;999.90;;;;;;;13.75;100.00;97878.97;5029554;28;20040;-75
2023/05/06 03:01:14;;;;;;;1999.90;999.90;;;;;;;13.74;100.00;97876.56;5004641;28;20033;-74
2023/05/06 03:03:40;;;;;;;1999.90;999.90;;;;;;;13.77;100.00;97876.72;5024247;28;20444;-76
2023/05/06 03:06:06;;;;;;;1999.90;999.90;;;;;;;13.76;100.00;97875.09;5024372;28;20029;-74
2023/05/06 03:08:31;;;;;;;1999.90;999.90;;;;;;;13.80;100.00;97873.34;4993873;28;20037;-75
2023/05/06 03:10:56;;;;;;;1999.90;999.90;;;;;;;13.64;100.00;97861.16;4993338;28;20455;-75
2023/05/06 03:13:22;;;;;;;1999.90;999.90;;;;;;;13.56;100.00;97864.69;5025619;28;20580;-74
2023/05/06 03:15:55;;;;;;;1999.90;999.90;;;;;;;13.55;100.00;97868.56;5031504;28;20033;-75
2023/05/06 03:18:21;;;;;;;1999.90;999.90;;;;;;;13.44;100.00;97867.19;5030708;28;20768;-75
2023/05/06 03:20:49;;;;;;;1999.90;999.90;;;;;;;13.34;100.00;97865.53;5030689;28;20117;-75
2023/05/06 03:23:14;;;;;;;1999.90;999.90;;;;;;;13.30;100.00;97874.72;5030747;28;20029;-74
2023/05/06 03:25:40;;;;;;;1999.90;999.90;;;;;;;13.28;100.00;97863.25;5030532;28;20068;-75
2023/05/06 03:28:05;;;;;;;1999.90;999.90;;;;;;;13.28;100.00;97866.00;5030485;28;20478;-74
2023/05/06 03:30:30;;;;;;;1999.90;999.90;;;;;;;13.28;100.00;97868.75;5030490;28;20108;-74
2023/05/06 03:32:59;;;;;;;1999.90;999.90;;;;;;;13.36;100.00;97878.97;5030449;28;20112;-74
2023/05/06 03:35:24;;;;;;;1999.90;999.90;;;;;;;13.38;100.00;97868.47;5030272;28;20025;-74
2023/05/06 03:37:50;;;;;;;1999.90;999.90;;;;;;;13.44;100.00;97880.94;5040374;28;20489;-74
2023/05/06 03:40:15;;;;;;;1999.90;999.90;;;;;;;13.44;100.00;97882.91;5050428;28;20017;-74
2023/05/06 03:42:41;;;;;;;1999.90;999.90;;;;;;;13.35;100.00;97877.34;5050334;28;20424;-75
2023/05/06 03:45:06;;;;;;;1999.90;999.90;;;;;;;13.22;100.00;97870.78;5050606;28;20029;-74
2023/05/06 03:47:31;;;;;;;1999.90;999.90;;;;;;;13.15;100.00;97877.88;5050242;28;20025;-74
2023/05/06 03:49:58;;;;;;;1999.90;999.90;;;;;;;13.11;100.00;97874.13;5052121;28;20009;-74
2023/05/06 03:52:23;;;;;;;1999.90;999.90;;;;;;;13.10;100.00;97875.25;5054056;28;20025;-74
2023/05/06 03:54:48;;;;;;;1999.90;999.90;;;;;;;13.22;100.00;97875.47;5054165;28;20508;-74
2023/05/06 03:57:14;;;;;;;1999.90;999.90;;;;;;;13.11;100.00;97863.13;5053941;28;20025;-75
2023/05/06 03:59:39;;;;;;;1999.90;999.90;;;;;;;13.14;100.00;97881.75;5054042;28;20033;-75
2023/05/06 04:02:05;;;;;;;1999.90;999.90;;;;;;;13.05;100.00;97873.41;5054134;28;20070;-76
2023/05/06 04:04:30;;;;;;;1999.90;999.90;;;;;;;13.15;100.00;97888.88;5054639;28;20378;-75
2023/05/06 04:06:55;;;;;;;1999.90;999.90;;;;;;;13.20;100.00;97889.53;5053853;28;20389;-75
2023/05/06 04:09:21;;;;;;;1999.90;999.90;;;;;;;13.12;100.00;97893.06;5054047;28;20491;-75
2023/05/06 04:11:46;;;;;;;1999.90;999.90;;;;;;;13.03;100.00;97883.09;5054012;28;20120;-75
2023/05/06 04:14:11;;;;;;;1999.90;999.90;;;;;;;13.08;100.00;97899.44;5053815;28;20071;-75
2023/05/06 04:16:36;;;;;;;1999.90;999.90;;;;;;;13.10;100.00;97894.47;5054127;28;20029;-75
2023/05/06 04:19:02;;;;;;;1999.90;999.90;;;;;;;13.11;100.00;97890.59;5035864;28;20123;-75
2023/05/06 04:21:28;;;;;;;1999.90;999.90;;;;;;;13.07;100.00;97892.31;5053787;28;20470;-75
2023/05/06 04:23:54;;;;;;;1999.90;999.90;;;;;;;13.05;100.00;97898.13;5053720;28;20033;-75
2023/05/06 04:26:20;;;;;;;1999.90;999.90;;;;;;;13.00;100.00;97900.19;5053866;28;20029;-75
2023/05/06 04:28:45;;;;;;;1999.90;999.90;;;;;;;12.96;100.00;97901.94;5053774;28;20116;-76
2023/05/06 04:31:10;;;;;;;1999.90;999.90;;;;;;;12.89;100.00;97905.94;5054981;28;20029;-77
2023/05/06 04:33:36;;;;;;;1999.90;999.90;;;;;;;12.88;100.00;97898.00;5058539;28;20033;-76
2023/05/06 04:36:02;;;;;;;1999.90;999.90;;;;;;;12.88;100.00;97898.81;5055651;28;20133;-75
2023/05/06 04:38:30;;;;;;;1999.90;999.90;;;;;;;12.96;100.00;97900.00;5053614;28;20122;-75
2023/05/06 04:40:56;;;;;;;1999.90;999.90;;;;;;;12.97;100.00;97901.63;5053763;28;20484;-74
2023/05/06 04:43:21;;;;;;;1999.90;999.90;;;;;;;12.95;100.00;97881.91;5053632;28;20025;-75
2023/05/06 04:45:50;;;;;;;1999.90;999.90;;;;;;;12.94;100.00;97890.47;5053660;28;20029;-74
2023/05/06 04:48:22;;;;;;;1999.90;999.90;;;;;;;13.06;100.00;97901.69;5053115;28;20029;-76
2023/05/06 04:50:49;;;;;;;1999.90;999.90;;;;;;;13.08;100.00;97904.94;5053177;28;20067;-75
2023/05/06 04:53:15;;;;;;;1999.90;999.90;;;;;;;13.14;100.00;97903.72;5053055;28;20031;-75
2023/05/06 04:55:40;;;;;;;1999.90;999.90;;;;;;;13.23;100.00;97905.41;5035189;28;20113;-75
2023/05/06 04:58:06;;;;;;;1999.90;999.90;;;;;;;13.39;100.00;97906.63;5052913;28;20125;-75
2023/05/06 05:00:32;;;;;;;1999.90;999.90;;;;;;;13.58;100.00;97913.84;5052178;28;20017;-74
2023/05/06 05:02:57;;;;;;;1999.90;999.90;;;;;;;13.63;100.00;97903.50;5052520;28;20037;-75
2023/05/06 05:05:24;;;;;;;1999.90;999.90;;;;;;;13.80;100.00;97914.59;5018486;28;20091;-74
2023/05/06 05:07:49;;;;;;;1999.90;999.90;;;;;;;13.95;100.00;97908.66;5052944;28;20374;-74
2023/05/06 05:10:14;;;;;;;1999.90;999.90;;;;;;;14.02;100.00;97905.44;5052710;28;20028;-74
2023/05/06 05:12:40;;;;;;;1999.90;999.90;;;;;;;14.10;100.00;97910.16;5052704;28;20111;-74
2023/05/06 05:15:05;;;;;;;1999.90;999.90;;;;;;;14.25;100.00;97919.94;5052744;28;20043;-74
2023/05/06 05:17:31;;;;;;;1999.90;999.90;;;;;;;14.29;100.00;97921.69;5052745;28;20042;-75
2023/05/06 05:19:56;;;;;;;1999.90;999.90;;;;;;;14.33;100.00;97916.41;5052071;28;20499;-75
2023/05/06 05:22:21;;;;;;;1999.90;999.90;;;;;;;14.32;100.00;97925.75;5032815;28;20029;-75
2023/05/06 05:24:47;;;;;;;1999.90;999.90;;;;;;;14.15;100.00;97914.72;5032466;28;20037;-75
2023/05/06 05:27:12;;;;;;;1999.90;999.90;;;;;;;14.12;100.00;97915.34;5031298;28;20029;-75
2023/05/06 05:29:37;;;;;;;1999.90;999.90;;;;;;;14.14;100.00;97911.16;5032476;28;20056;-75
2023/05/06 05:32:03;;;;;;;1999.90;999.90;;;;;;;14.21;100.00;97918.94;5032356;28;20021;-76
2023/05/06 05:34:28;;;;;;;1999.90;999.90;;;;;;;14.29;100.00;97916.19;5032221;28;20028;-74
2023/05/06 05:36:54;;;;;;;1999.90;999.90;;;;;;;14.25;100.00;97908.91;5035044;28;20029;-74
2023/05/06 05:39:19;;;;;;;1999.90;999.90;;;;;;;14.31;100.00;97918.66;5032516;28;20034;-73
2023/05/06 05:41:44;;;;;;;1999.90;999.90;;;;;;;14.34;100.00;97920.78;5023836;28;20037;-74
2023/05/06 05:44:10;;;;;;;1999.90;999.90;;;;;;;14.35;100.00;97930.66;5011880;28;20042;-75
2023/05/06 05:46:35;;;;;;;1999.90;999.90;;;;;;;14.36;100.00;97926.78;5012428;28;20124;-75
2023/05/06 05:49:00;;;;;;;1999.90;999.90;;;;;;;14.36;100.00;97929.53;5011831;28;20064;-75
2023/05/06 05:51:26;;;;;;;1999.90;999.90;;;;;;;14.40;100.00;97928.56;5011931;28;20430;-74
2023/05/06 05:53:51;;;;;;;1999.90;999.90;;;;;;;14.41;100.00;97921.91;5019987;28;20021;-74
2023/05/06 05:56:16;;;;;;;1999.90;999.90;;;;;;;14.45;100.00;97919.34;5031461;28;20034;-75
2023/05/06 05:58:42;;;;;;;1999.90;999.90;;;;;;;14.43;100.00;97919.66;5031462;28;20077;-74
2023/05/06 06:01:07;;;;;;;1999.90;999.90;;;;;;;14.42;100.00;97914.47;5031357;28;20026;-76
2023/05/06 06:03:32;;;;;;;1999.90;999.90;;;;;;;14.44;100.00;97923.22;5031202;28;20104;-74
2023/05/06 06:05:58;;;;;;;1999.90;999.90;;;;;;;14.56;100.00;97928.09;5031396;28;20060;-73
2023/05/06 06:08:23;;;;;;;1999.90;999.90;;;;;;;14.72;100.00;97924.53;5031161;28;20133;-75
2023/05/06 06:10:48;;;;;;;1999.90;999.90;;;;;;;14.78;100.00;97937.06;5032544;28;20026;-74
2023/05/06 06:13:14;;;;;;;1999.90;999.90;;;;;;;14.90;100.00;97930.91;5030754;28;20449;-74
2023/05/06 06:15:40;;;;;;;1999.90;999.90;;;;;;;14.95;100.00;97934.28;5030960;28;20025;-74
2023/05/06 06:18:07;;;;;;;1999.90;999.90;;;;;;;14.97;100.00;97928.47;5031361;28;20508;-75
2023/05/06 06:20:34;;;;;;;1999.90;999.90;;;;;;;15.09;100.00;97930.56;5031953;28;20111;-74
2023/05/06 06:23:00;;;;;;;1999.90;999.90;;;;;;;15.15;100.00;97929.25;5033349;28;20025;-74
2023/05/06 06:25:26;;;;;;;1999.90;999.90;;;;;;;15.26;100.00;97930.53;5031041;28;20068;-74
2023/05/06 06:27:53;;;;;;;1999.90;999.90;;;;;;;15.38;100.00;97933.47;5030892;28;20101;-73
2023/05/06 06:30:19;;;;;;;1999.90;999.90;;;;;;;15.53;100.00;97933.78;5005329;28;20482;-74
2023/05/06 06:32:49;;;;;;;1999.90;999.90;;;;;;;15.50;100.00;97933.63;5011021;28;20040;-73
2023/05/06 06:35:15;;;;;;;1999.90;999.90;;;;;;;15.55;100.00;97927.94;5011111;28;20124;-76
2023/05/06 06:37:41;;;;;;;1999.90;999.90;;;;;;;15.67;100.00;97930.81;5010899;28;20128;-74
2023/05/06 06:40:07;;;;;;;1999.90;999.90;;;;;;;15.81;100.00;97938.88;5011508;28;20057;-74
2023/05/06 06:42:32;;;;;;;1999.90;999.90;;;;;;;15.87;100.00;97941.13;5011400;28;20034;-74
2023/05/06 06:44:58;;;;;;;1999.90;999.90;;;;;;;16.16;100.00;97950.59;5010797;28;20033;-73
2023/05/06 06:47:23;;;;;;;1999.90;999.90;;;;;;;16.27;100.00;97941.59;5011090;28;20053;-73
2023/05/06 06:49:48;;;;;;;1999.90;999.90;;;;;;;16.46;100.00;97943.94;5010724;28;20471;-74
2023/05/06 06:52:13;;;;;;;1999.90;999.90;;;;;;;16.62;100.00;97949.72;5010720;28;20040;-74
2023/05/06 06:54:39;;;;;;;1999.90;999.90;;;;;;;16.75;100.00;97949.47;4993228;28;20026;-74
2023/05/06 06:57:07;;;;;;;1999.90;999.90;;;;;;;16.92;100.00;97952.09;5010807;28;20026;-74
2023/05/06 06:59:32;;;;;;;1999.90;999.90;;;;;;;17.02;100.00;97951.72;5010382;28;20030;-74
2023/05/06 07:01:58;;;;;;;1999.90;999.90;;;;;;;17.09;100.00;97945.66;5010667;28;20072;-74
2023/05/06 07:04:24;;;;;;;1999.90;999.90;;;;;;;17.13;100.00;97947.38;5020666;28;20034;-75
2023/05/06 07:06:50;;;;;;;1999.90;999.90;;;;;;;16.94;100.00;97941.53;5005236;28;20018;-77
2023/05/06 07:09:15;;;;;;;1999.90;999.90;;;;;;;16.91;100.00;97949.69;5029532;28;20037;-75
2023/05/06 07:11:41;;;;;;;1999.90;999.90;;;;;;;16.94;100.00;97949.84;5010715;28;20033;-74
2023/05/06 07:14:06;;;;;;;1999.90;999.90;;;;;;;17.00;100.00;97939.38;5010521;28;20443;-74
2023/05/06 07:16:32;;;;;;;1999.90;999.90;;;;;;;17.16;100.00;97945.09;5029087;28;20036;-74
2023/05/06 07:18:57;;;;;;;1999.90;999.90;;;;;;;17.21;100.00;97945.69;5023816;28;20021;-75
2023/05/06 07:21:22;;;;;;;1999.90;999.90;;;;;;;17.33;100.00;97947.69;5022548;28;20030;-75
2023/05/06 07:23:48;;;;;;;1999.90;999.90;;;;;;;17.55;100.00;97952.88;5029233;28;20068;-75
2023/05/06 07:26:13;;;;;;;1999.90;999.90;;;;;;;17.83;100.00;97953.06;5029181;28;20065;-74
2023/05/06 07:28:39;;;;;;;1999.90;999.90;;;;;;;18.04;100.00;97942.75;5029662;28;20022;-75
2023/05/06 07:31:04;;;;;;;1999.90;999.90;;;;;;;18.16;100.00;97935.28;5029577;28;20042;-75
2023/05/06 07:33:29;;;;;;;1999.90;999.90;;;;;;;18.27;100.00;97940.34;5030044;28;20040;-74
2023/05/06 07:35:55;;;;;;;1999.90;999.90;;;;;;;18.22;100.00;97924.78;5029921;28;20033;-76
2023/05/06 07:38:21;;;;;;;1999.90;999.90;;;;;;;18.29;100.00;97936.09;5029690;28;20056;-79
2023/05/06 07:40:47;;;;;;;1999.90;999.90;;;;;;;18.37;100.00;97943.47;5029454;28;20490;-75
2023/05/06 07:43:13;;;;;;;1999.90;999.90;;;;;;;18.36;100.00;97938.25;5024317;28;20018;-75
2023/05/06 07:45:38;;;;;;;1999.90;999.90;;;;;;;18.42;100.00;97936.91;4998436;28;20551;-76
2023/05/06 07:48:04;;;;;;;1999.90;999.90;;;;;;;18.76;100.00;97947.53;5009907;28;20137;-75
2023/05/06 07:50:30;;;;;;;1999.90;999.90;;;;;;;19.00;100.00;97947.47;5021947;28;20831;-75
2023/05/06 07:52:56;;;;;;;1999.90;999.90;;;;;;;19.07;100.00;97946.88;5027762;28;20026;-76
2023/05/06 07:55:21;;;;;;;1999.90;999.90;;;;;;;19.09;100.00;97962.00;5024417;28;20223;-76
2023/05/06 07:57:46;;;;;;;1999.90;999.90;;;;;;;19.24;100.00;97952.94;5021707;28;20029;-76
2023/05/06 08:00:12;;;;;;;1999.90;999.90;;;;;;;19.47;100.00;97955.19;5002144;28;20033;-76
2023/05/06 08:02:42;;;;;;;1999.90;999.90;;;;;;;19.58;100.00;97953.50;5022342;28;20172;-76
2023/05/06 08:05:08;;;;;;;1999.90;999.90;;;;;;;19.86;100.00;97951.50;5008906;28;20073;-76
2023/05/06 08:07:33;;;;;;;1999.90;999.90;;;;;;;19.94;100.00;97964.44;5023311;28;20137;-76
2023/05/06 08:09:59;;;;;;;1999.90;999.90;;;;;;;20.32;100.00;97949.97;5017318;28;20037;-74
2023/05/06 08:12:24;;;;;;;1999.90;999.90;;;;;;;21.13;100.00;97962.22;5021623;28;20120;-76
2023/05/06 08:14:49;;;;;;;1999.90;999.90;;;;;;;21.65;98.15;97968.09;5027858;28;20531;-76
2023/05/06 08:17:15;;;;;;;1999.90;999.90;;;;;;;21.69;97.43;97965.38;5017181;28;20030;-76
2023/05/06 08:19:40;;;;;;;1999.90;999.90;;;;;;;22.24;94.20;97970.44;4992022;28;20037;-74
2023/05/06 08:22:06;;;;;;;1999.90;999.90;;;;;;;22.76;88.33;97964.19;4993022;28;20026;-75
2023/05/06 08:24:31;;;;;;;1999.90;999.90;;;;;;;22.92;88.65;97967.63;5010188;28;20061;-75
2023/05/06 08:26:57;;;;;;;1999.90;999.90;;;;;;;23.20;77.21;97961.63;5006729;28;20029;-75
2023/05/06 08:29:22;;;;;;;1999.90;999.90;;;;;;;22.20;80.01;97954.84;5029135;28;20029;-75
2023/05/06 08:31:47;;;;;;;1999.90;999.90;;;;;;;22.61;78.30;97962.31;5030431;28;20437;-75
2023/05/06 08:34:13;;;;;;;1999.90;999.90;;;;;;;23.05;75.61;97959.81;5028356;28;20112;-75
2023/05/06 08:36:38;;;;;;;1999.90;999.90;;;;;;;23.41;73.11;97961.13;5012551;28;20040;-76
2023/05/06 08:39:04;;;;;;;1999.90;999.90;;;;;;;23.41;70.62;97964.72;5031239;28;20033;-76
2023/05/06 08:41:31;;;;;;;1999.90;999.90;;;;;;;23.98;67.62;97965.41;5031623;28;20055;-75
2023/05/06 08:43:59;;;;;;;1999.90;999.90;;;;;;;24.69;63.00;97954.88;5031512;28;20052;-76
2023/05/06 08:46:26;;;;;;;1999.90;999.90;;;;;;;24.07;64.85;97960.31;5032618;28;20060;-75
2023/05/06 08:48:51;;;;;;;1999.90;999.90;;;;;;;24.62;62.83;97966.03;5033149;28;20042;-76
2023/05/06 08:51:17;;;;;;;1999.90;999.90;;;;;;;26.80;54.81;97979.38;5032489;28;20026;-75
2023/05/06 08:53:47;;;;;;;1999.90;999.90;;;;;;;28.43;49.14;97974.03;5032464;28;20037;-76
2023/05/06 08:56:14;;;;;;;1999.90;999.90;;;;;;;28.68;44.04;97969.84;5032348;28;20516;-74
2023/05/06 08:58:45;;;;;;;1999.90;999.90;;;;;;;28.02;43.46;97968.22;5032520;28;20025;-74
2023/05/06 09:01:10;;;;;;;1999.90;999.90;;;;;;;29.40;42.51;97956.69;5032408;28;20087;-78
2023/05/06 09:03:35;;;;;;;1999.90;999.90;;;;;;;29.51;42.92;97970.69;5032314;28;20405;-74
2023/05/06 09:06:01;;;;;;;1999.90;999.90;;;;;;;30.75;40.17;97973.41;5032314;28;20278;-76
2023/05/06 09:08:26;;;;;;;1999.90;999.90;;;;;;;30.51;39.40;97968.94;5032411;28;20037;-75
2023/05/06 09:10:51;;;;;;;1999.90;999.90;;;;;;;29.75;40.28;97970.38;5032304;28;20065;-74
2023/05/06 09:13:18;;;;;;;1999.90;999.90;;;;;;;30.00;39.31;97966.44;5032479;28;20056;-74
2023/05/06 09:15:48;;;;;;;1999.90;999.90;;;;;;;30.39;38.22;97966.72;5032599;28;20099;-74
2023/05/06 09:18:15;;;;;;;1999.90;999.90;;;;;;;30.20;38.60;97958.88;5032695;28;20040;-75
2023/05/06 09:20:45;;;;;;;1999.90;999.90;;;;;;;30.51;37.90;97968.94;5032555;28;20037;-74
2023/05/06 09:23:13;;;;;;;1999.90;999.90;;;;;;;30.84;37.03;97964.38;5032553;28;20033;-72
2023/05/06 09:25:40;;;;;;;1999.90;999.90;;;;;;;29.65;39.12;97962.84;5030534;28;20497;-74
2023/05/06 09:28:10;;;;;;;1999.90;999.90;;;;;;;30.91;36.59;97964.25;5027348;28;20040;-73
2023/05/06 09:30:40;;;;;;;1999.90;999.90;;;;;;;30.33;36.83;97956.28;5028977;28;20472;-74
2023/05/06 09:33:05;;;;;;;1999.90;999.90;;;;;;;29.13;39.44;97952.94;5011788;28;20030;-74
2023/05/06 09:35:36;;;;;;;1999.90;999.90;;;;;;;29.41;39.41;97949.84;5011537;28;20444;-75
2023/05/06 09:38:02;;;;;;;1999.90;999.90;;;;;;;29.85;38.13;97950.94;5041869;28;20053;-74
2023/05/06 09:40:28;;;;;;;1999.90;999.90;;;;;;;29.63;38.27;97945.53;5056416;28;20160;-74
2023/05/06 09:42:55;;;;;;;1999.90;999.90;;;;;;;30.56;36.97;97943.03;5055164;28;20103;-74
2023/05/06 09:45:21;;;;;;;1999.90;999.90;;;;;;;30.66;36.25;97947.72;5055839;28;20044;-75
2023/05/06 09:47:48;;;;;;;1999.90;999.90;;;;;;;30.09;37.29;97944.94;5037296;28;20037;-75
2023/05/06 09:50:15;;;;;;;1999.90;999.90;;;;;;;30.53;36.53;97946.72;5031629;28;20390;-73
2023/05/06 09:52:43;;;;;;;1999.90;999.90;;;;;;;31.40;35.24;97947.63;5031296;28;20053;-73
2023/05/06 09:55:10;;;;;;;1999.90;999.90;;;;;;;31.21;34.16;97938.69;5031183;28;20131;-74
2023/05/06 09:57:36;;;;;;;1999.90;999.90;;;;;;;31.25;34.75;97930.16;5029519;28;20083;-73
2023/05/06 10:00:03;;;;;;;1999.90;999.90;;;;;;;31.00;34.76;97941.91;5026663;28;20030;-73
2023/05/06 10:02:29;;;;;;;1999.90;999.90;;;;;;;31.63;34.04;97939.91;5029928;28;20383;-74
2023/05/06 10:04:56;;;;;;;1999.90;999.90;;;;;;;31.59;32.98;97930.69;5030011;28;20022;-73
2023/05/06 10:07:22;;;;;;;1999.90;999.90;;;;;;;30.34;33.86;97933.28;5029948;28;20021;-71
2023/05/06 10:09:48;;;;;;;1999.90;999.90;;;;;;;29.35;35.58;97925.34;5012374;28;20143;-73
2023/05/06 10:12:15;;;;;;;1999.90;999.90;;;;;;;27.97;38.09;97918.03;5034421;28;20037;-73
2023/05/06 10:14:40;;;;;;;1999.90;999.90;;;;;;;28.92;36.80;97916.50;5031449;28;20103;-74
2023/05/06 10:17:08;;;;;;;1999.90;999.90;;;;;;;28.68;37.37;97907.88;5030642;28;20061;-73
2023/05/06 10:19:34;;;;;;;1999.90;999.90;;;;;;;28.76;37.67;97907.84;5029819;28;20488;-73
2023/05/06 10:22:09;;;;;;;1999.90;999.90;;;;;;;29.40;35.89;97908.75;5030097;28;20065;-73
2023/05/06 10:24:51;;;;;;;1999.90;999.90;;;;;;;29.55;37.01;97913.00;5029913;28;20022;-72
2023/05/06 10:27:17;;;;;;;1999.90;999.90;;;;;;;29.31;36.92;97910.47;5030159;28;20029;-72
2023/05/06 10:29:42;;;;;;;1999.90;999.90;;;;;;;29.58;36.10;97908.53;5029615;28;20022;-73
2023/05/06 10:32:09;;;;;;;1999.90;999.90;;;;;;;29.52;35.53;97894.09;5030086;28;20597;-73
2023/05/06 10:34:40;;;;;;;1999.90;999.90;;;;;;;28.62;37.44;97889.81;5030219;28;20140;-73
2023/05/06 10:37:08;;;;;;;1999.90;999.90;;;;;;;29.50;36.04;97895.75;5036296;28;20099;-73
2023/05/06 10:39:33;;;;;;;1999.90;999.90;;;;;;;29.08;36.37;97895.00;5023726;28;20027;-73
2023/05/06 10:41:59;;;;;;;1999.90;999.90;;;;;;;28.14;38.34;97880.56;5037510;28;20107;-73
2023/05/06 10:45:09;;;;;;;1999.90;999.90;;;;;;;27.32;39.59;97877.34;5033516;28;20033;-73
2023/05/06 10:47:57;;;;;;;1999.90;999.90;;;;;;;25.75;41.89;97866.63;5012020;28;20490;-73